Archival Weather

Chicago O'Hare International

Chicago, Illinois (KORD)

Report from: Tuesday, August 16, 2022 5:51 PM CDT
Current time: Sunday, February 25, 2024 4:50 PM CST

Current weather – Weather history – Daily summaries
Weather forecast

Temperature25.0°C (77.0°F)
Dew point8.9°C (48.0°F)
Winds 14 kts (7.2 m/s, 16.1 mph) North-Northeast (30°)
Visibility10 mi. (16.1 km)
Clouds Few clouds 6,000 ft. (1,829 m)
Few clouds 25,000 ft. (7,620 m)
Altimeter30.10 in.Hg (1019 mB)
Relative humidity36 %
Density altitude1,133 ft. (345 m)
Sea-level pressure101.9 kPa (1019 mB, 30.09 in.Hg)
Remarks Automated weather observing station with precipitation discriminator
Flight conditions Visual Meteorological Conditions
Raw dataKORD 162251Z 03014KT 10SM FEW060 FEW250 25/09 A3010 RMK AO2 SLP189 T02500089
An error has occurred. This application may no longer respond until reloaded. Reload 🗙